Time;durP1;ratioP1;P1;durP2;ratioP2;P2;SDS_P1;SDS_P2;PMS_P1;PMS_P2;Temp;Humidity;BMP_temperature;BMP_pressure;BME280_temperature;BME280_humidity;BME280_pressure;Samples;Min_cycle;Max_cycle;Signal;HPM_P1;HPM_P2
2022/02/22 00:00:21;;;;;;;7.38;1.90;;;6.30;78.40;;;;;;5009844;28;20037;-73
2022/02/22 00:02:48;;;;;;;11.57;2.40;;;6.40;78.40;;;;;;5010157;28;20470;-74
2022/02/22 00:05:14;;;;;;;6.15;1.88;;;6.30;78.50;;;;;;5009502;28;20045;-73
2022/02/22 00:07:41;;;;;;;4.78;1.77;;;6.20;78.90;;;;;;5009827;28;20033;-73
2022/02/22 00:10:09;;;;;;;9.93;1.75;;;6.10;79.20;;;;;;5009664;28;20029;-73
2022/02/22 00:12:36;;;;;;;7.53;1.58;;;6.00;80.30;;;;;;4992806;28;20034;-73
2022/02/22 00:15:04;;;;;;;2.72;1.40;;;5.80;80.60;;;;;;5009093;28;20045;-74
2022/02/22 00:17:33;;;;;;;4.28;1.80;;;5.80;81.10;;;;;;5009897;28;20038;-73
2022/02/22 00:20:03;;;;;;;8.55;1.85;;;5.70;81.40;;;;;;5010280;28;20044;-73
2022/02/22 00:22:29;;;;;;;6.53;1.80;;;5.70;81.30;;;;;;5010042;28;20032;-73
2022/02/22 00:24:56;;;;;;;9.98;2.75;;;5.80;81.40;;;;;;5009747;28;20030;-73
2022/02/22 00:27:22;;;;;;;5.60;2.10;;;5.80;81.30;;;;;;5009420;28;20026;-73
2022/02/22 00:29:48;;;;;;;4.63;2.08;;;5.90;81.20;;;;;;5009823;28;20036;-73
2022/02/22 00:32:15;;;;;;;6.68;1.90;;;5.90;81.00;;;;;;4990648;28;20045;-73
2022/02/22 00:34:41;;;;;;;6.45;1.52;;;6.10;79.80;;;;;;5010096;28;20030;-73
2022/02/22 00:37:07;;;;;;;3.13;1.10;;;6.10;79.50;;;;;;4992098;28;20063;-74
2022/02/22 00:39:33;;;;;;;2.88;1.70;;;6.20;79.50;;;;;;5009904;28;20041;-74
2022/02/22 00:42:00;;;;;;;5.80;1.98;;;6.30;79.10;;;;;;5009829;28;20034;-73
2022/02/22 00:44:27;;;;;;;8.15;1.88;;;6.30;79.20;;;;;;5009722;28;20045;-73
2022/02/22 00:46:53;;;;;;;3.33;1.52;;;6.30;79.00;;;;;;5009556;28;20053;-73
2022/02/22 00:49:19;;;;;;;2.75;1.50;;;6.40;79.20;;;;;;5009047;28;20465;-72
2022/02/22 00:51:45;;;;;;;2.78;1.48;;;6.50;78.90;;;;;;5009446;28;20362;-73
2022/02/22 00:54:12;;;;;;;8.32;1.63;;;6.50;78.90;;;;;;5012433;28;20033;-73
2022/02/22 00:56:38;;;;;;;4.60;1.67;;;6.60;79.10;;;;;;5012939;28;20034;-73
2022/02/22 00:59:04;;;;;;;4.93;1.67;;;6.50;79.60;;;;;;5012036;28;20022;-74
2022/02/22 01:01:30;;;;;;;6.47;1.90;;;6.50;80.10;;;;;;5012478;28;20056;-72
2022/02/22 01:03:57;;;;;;;6.15;1.65;;;6.40;81.40;;;;;;5012450;28;20040;-72
2022/02/22 01:06:23;;;;;;;8.68;1.88;;;6.30;83.90;;;;;;5012044;28;20455;-72
2022/02/22 01:08:49;;;;;;;2.97;1.55;;;6.10;86.50;;;;;;5012703;28;20026;-72
2022/02/22 01:11:15;;;;;;;6.75;1.73;;;6.10;87.30;;;;;;4994610;28;20347;-72
2022/02/22 01:13:42;;;;;;;4.20;1.50;;;6.00;88.20;;;;;;5012358;28;20343;-72
2022/02/22 01:16:08;;;;;;;8.52;1.95;;;5.90;88.60;;;;;;4993648;28;20038;-72
2022/02/22 01:18:34;;;;;;;4.40;1.67;;;5.90;89.20;;;;;;5012422;28;20030;-72
2022/02/22 01:21:01;;;;;;;2.83;1.48;;;5.80;88.80;;;;;;5012535;28;20034;-73
2022/02/22 01:23:27;;;;;;;10.05;2.38;;;5.70;89.40;;;;;;5011366;28;20041;-72
2022/02/22 01:25:56;;;;;;;10.07;2.05;;;5.70;89.20;;;;;;5012317;28;20033;-72
2022/02/22 01:28:22;;;;;;;4.15;1.25;;;5.70;89.00;;;;;;4994145;28;20037;-72
2022/02/22 01:30:48;;;;;;;4.57;1.67;;;5.80;88.60;;;;;;4995755;28;20046;-72
2022/02/22 01:33:14;;;;;;;5.45;1.35;;;5.80;87.30;;;;;;4993695;28;20034;-72
2022/02/22 01:35:40;;;;;;;3.00;1.10;;;5.70;87.90;;;;;;5011684;28;20033;-72
2022/02/22 01:38:07;;;;;;;4.72;1.83;;;5.60;88.10;;;;;;5011251;28;20037;-72
2022/02/22 01:40:33;;;;;;;12.82;1.90;;;5.60;87.80;;;;;;5012181;28;20030;-72
2022/02/22 01:43:00;;;;;;;4.68;1.75;;;5.60;87.90;;;;;;5013063;28;20057;-72
2022/02/22 01:45:26;;;;;;;5.82;1.85;;;5.50;87.40;;;;;;4978854;28;20049;-72
2022/02/22 01:47:53;;;;;;;16.98;1.80;;;5.60;87.20;;;;;;5012815;28;20038;-73
2022/02/22 01:50:19;;;;;;;5.38;1.88;;;5.50;87.70;;;;;;5011608;28;20032;-72
2022/02/22 01:52:45;;;;;;;6.20;1.55;;;5.50;88.10;;;;;;5012095;28;20030;-72
2022/02/22 01:55:12;;;;;;;10.77;1.95;;;5.40;88.00;;;;;;5011678;28;20033;-72
2022/02/22 01:57:38;;;;;;;7.60;1.63;;;5.40;87.80;;;;;;5012838;28;20042;-71
2022/02/22 02:00:10;;;;;;;3.30;1.65;;;5.40;88.00;;;;;;5013314;28;20033;-71
2022/02/22 02:02:40;;;;;;;5.95;1.65;;;5.40;88.10;;;;;;5011623;28;20037;-73
2022/02/22 02:05:07;;;;;;;3.95;2.05;;;5.40;87.40;;;;;;5010472;28;20034;-76
2022/02/22 02:07:34;;;;;;;3.83;1.58;;;5.50;87.40;;;;;;5011588;28;20029;-72
2022/02/22 02:10:00;;;;;;;4.70;2.22;;;5.60;86.00;;;;;;5011692;28;20041;-72
2022/02/22 02:12:27;;;;;;;4.72;1.85;;;5.60;85.90;;;;;;5011753;28;20053;-72
2022/02/22 02:14:53;;;;;;;3.50;1.88;;;5.70;85.70;;;;;;5011268;28;20046;-72
2022/02/22 02:17:19;;;;;;;5.75;1.95;;;5.80;85.20;;;;;;5010683;28;20037;-74
2022/02/22 02:19:45;;;;;;;5.35;1.77;;;5.70;84.70;;;;;;5011255;28;20463;-72
2022/02/22 02:22:11;;;;;;;3.38;1.80;;;5.70;84.40;;;;;;4992736;28;20034;-73
2022/02/22 02:24:37;;;;;;;5.93;1.70;;;5.70;84.50;;;;;;5010919;28;20038;-72
2022/02/22 02:27:04;;;;;;;10.90;2.58;;;5.70;84.40;;;;;;5011443;28;20360;-72
2022/02/22 02:29:30;;;;;;;4.07;1.35;;;5.70;84.70;;;;;;5011007;28;20446;-72
2022/02/22 02:31:57;;;;;;;6.65;2.45;;;5.70;84.70;;;;;;4977370;28;20045;-72
2022/02/22 02:34:26;;;;;;;3.35;1.27;;;5.80;83.40;;;;;;5010509;28;20026;-72
2022/02/22 02:36:53;;;;;;;2.80;1.58;;;5.80;83.20;;;;;;4994085;28;20033;-72
2022/02/22 02:39:19;;;;;;;4.40;2.08;;;5.70;83.20;;;;;;5011222;28;20038;-72
2022/02/22 02:41:46;;;;;;;8.35;2.03;;;5.80;82.50;;;;;;5012003;28;20045;-72
2022/02/22 02:44:19;;;;;;;3.85;2.22;;;5.80;81.80;;;;;;5010563;28;20032;-72
2022/02/22 02:46:45;;;;;;;6.78;2.45;;;5.90;80.60;;;;;;5011227;28;20034;-72
2022/02/22 02:49:14;;;;;;;13.40;2.35;;;5.80;81.00;;;;;;5010767;28;20052;-73
2022/02/22 02:51:41;;;;;;;4.93;2.10;;;5.70;81.40;;;;;;5011964;28;20054;-73
2022/02/22 02:54:08;;;;;;;5.22;2.53;;;5.70;82.70;;;;;;5010772;28;20443;-72
2022/02/22 02:56:36;;;;;;;3.22;1.75;;;5.80;81.60;;;;;;5010897;28;20037;-72
2022/02/22 02:59:06;;;;;;;3.30;1.88;;;5.80;81.60;;;;;;5010613;28;20052;-73
2022/02/22 03:01:33;;;;;;;9.25;1.83;;;6.00;80.60;;;;;;5009949;28;20034;-72
2022/02/22 03:04:00;;;;;;;9.15;2.05;;;6.00;80.10;;;;;;5011884;28;20053;-72
2022/02/22 03:06:26;;;;;;;5.18;2.08;;;6.00;80.80;;;;;;5009901;28;20026;-72
2022/02/22 03:08:52;;;;;;;4.78;1.92;;;5.90;80.10;;;;;;5010751;28;20041;-72
2022/02/22 03:11:19;;;;;;;5.15;2.03;;;5.90;80.60;;;;;;5010083;28;20374;-72
2022/02/22 03:13:46;;;;;;;8.45;1.95;;;5.90;80.20;;;;;;5010253;28;20128;-72
2022/02/22 03:16:12;;;;;;;7.03;1.63;;;5.90;80.30;;;;;;5007835;28;20045;-73
2022/02/22 03:18:39;;;;;;;7.70;2.42;;;5.80;80.80;;;;;;5010761;28;20083;-72
2022/02/22 03:21:05;;;;;;;4.38;1.40;;;5.80;80.10;;;;;;5009988;28;20343;-72
2022/02/22 03:23:31;;;;;;;5.15;2.53;;;5.90;80.00;;;;;;5009503;28;20045;-73
2022/02/22 03:25:58;;;;;;;7.10;2.22;;;5.90;79.00;;;;;;5010260;28;20057;-72
2022/02/22 03:28:24;;;;;;;11.98;2.30;;;5.90;78.50;;;;;;5009572;28;20462;-72
2022/02/22 03:30:50;;;;;;;9.60;2.08;;;5.90;78.20;;;;;;5010360;28;20034;-72
2022/02/22 03:33:16;;;;;;;6.45;2.33;;;5.90;78.30;;;;;;5009781;28;20026;-72
2022/02/22 03:35:43;;;;;;;5.78;2.30;;;5.80;79.00;;;;;;5009328;28;20365;-72
2022/02/22 03:38:10;;;;;;;5.55;2.05;;;5.80;78.40;;;;;;4993251;28;20037;-72
2022/02/22 03:40:37;;;;;;;10.88;2.95;;;5.90;78.50;;;;;;5010227;28;20370;-72
2022/02/22 03:43:04;;;;;;;9.80;2.08;;;5.90;78.30;;;;;;5009868;28;20037;-72
2022/02/22 03:45:30;;;;;;;7.43;2.25;;;5.90;78.10;;;;;;5009034;28;20033;-72
2022/02/22 03:47:57;;;;;;;6.45;2.30;;;5.90;77.70;;;;;;5010013;28;20030;-73
2022/02/22 03:50:23;;;;;;;6.20;2.50;;;5.90;77.60;;;;;;5009279;28;20033;-71
2022/02/22 03:52:50;;;;;;;7.00;2.35;;;5.80;78.10;;;;;;5009547;28;20366;-71
2022/02/22 03:55:16;;;;;;;9.73;2.55;;;5.80;77.60;;;;;;5009112;28;20030;-72
2022/02/22 03:57:43;;;;;;;10.32;1.92;;;5.70;78.20;;;;;;5009133;28;20040;-72
2022/02/22 04:00:16;;;;;;;7.38;2.50;;;5.80;76.90;;;;;;5009945;28;20034;-72
2022/02/22 04:02:43;;;;;;;6.32;1.88;;;5.70;77.00;;;;;;5009976;28;20458;-72
2022/02/22 04:05:09;;;;;;;8.27;2.35;;;5.60;77.10;;;;;;5009743;28;20030;-72
2022/02/22 04:07:36;;;;;;;2.38;1.30;;;5.60;77.80;;;;;;4990432;28;20045;-72
2022/02/22 04:10:06;;;;;;;14.65;2.88;;;5.50;77.20;;;;;;5009858;28;20026;-73
2022/02/22 04:12:32;;;;;;;7.50;2.03;;;5.40;77.80;;;;;;5008904;28;20462;-73
2022/02/22 04:15:00;;;;;;;5.28;1.73;;;5.30;77.30;;;;;;5008951;28;20042;-72
2022/02/22 04:17:27;;;;;;;13.32;2.40;;;5.30;76.90;;;;;;5009128;28;20083;-72
2022/02/22 04:19:53;;;;;;;9.38;3.10;;;5.40;76.10;;;;;;5009642;28;20368;-72
2022/02/22 04:22:20;;;;;;;5.13;2.13;;;5.40;76.10;;;;;;5008750;28;20041;-72
2022/02/22 04:24:46;;;;;;;6.13;2.42;;;5.30;76.70;;;;;;5010436;28;20045;-72
2022/02/22 04:27:13;;;;;;;5.40;2.85;;;5.20;76.90;;;;;;5010470;28;20033;-72
2022/02/22 04:29:40;;;;;;;9.98;2.08;;;5.20;76.30;;;;;;5009824;28;20030;-72
2022/02/22 04:32:07;;;;;;;9.07;2.40;;;5.20;76.20;;;;;;5009457;28;20038;-72
2022/02/22 04:34:34;;;;;;;4.28;2.00;;;5.20;75.60;;;;;;5008350;28;20025;-73
2022/02/22 04:37:00;;;;;;;10.02;2.38;;;5.20;76.40;;;;;;5008976;28;20025;-72
2022/02/22 04:39:27;;;;;;;11.68;2.38;;;5.20;75.40;;;;;;5008722;28;20033;-72
2022/02/22 04:41:53;;;;;;;10.98;2.88;;;5.20;75.50;;;;;;5009193;28;20026;-73
2022/02/22 04:44:20;;;;;;;4.55;2.28;;;5.30;75.30;;;;;;4991027;28;20034;-73
2022/02/22 04:46:46;;;;;;;7.53;2.60;;;5.20;75.80;;;;;;5009653;28;20037;-72
2022/02/22 04:49:13;;;;;;;13.35;2.60;;;5.20;76.10;;;;;;5011397;28;20045;-72
2022/02/22 04:51:41;;;;;;;9.93;2.72;;;5.20;76.90;;;;;;5008571;28;20459;-73
2022/02/22 04:54:08;;;;;;;5.32;2.13;;;5.20;76.80;;;;;;5009211;28;20026;-72
2022/02/22 04:56:34;;;;;;;7.15;2.60;;;5.10;77.10;;;;;;5008402;28;20030;-72
2022/02/22 04:59:01;;;;;;;10.85;4.72;;;5.20;76.60;;;;;;5008995;28;20026;-72
2022/02/22 05:01:27;;;;;;;16.52;3.15;;;5.30;76.90;;;;;;5007729;28;20038;-73
2022/02/22 05:03:53;;;;;;;7.97;3.10;;;5.20;77.80;;;;;;5008821;28;20030;-73
2022/02/22 05:06:20;;;;;;;6.88;2.60;;;5.10;77.60;;;;;;5008305;28;20045;-72
2022/02/22 05:08:46;;;;;;;6.88;2.65;;;5.20;78.00;;;;;;5008874;28;20067;-72
2022/02/22 05:11:12;;;;;;;14.52;2.83;;;5.30;76.90;;;;;;4991162;28;20406;-72
2022/02/22 05:13:38;;;;;;;10.95;2.13;;;5.60;76.20;;;;;;5008299;28;20387;-72
2022/02/22 05:16:06;;;;;;;14.25;2.92;;;5.70;76.00;;;;;;5008830;28;20038;-72
2022/02/22 05:18:32;;;;;;;13.38;3.08;;;5.80;76.00;;;;;;5008477;28;20038;-72
2022/02/22 05:20:58;;;;;;;13.13;2.88;;;5.80;76.30;;;;;;5009465;28;20052;-72
2022/02/22 05:23:27;;;;;;;7.43;2.85;;;5.80;76.40;;;;;;4989596;28;20060;-73
2022/02/22 05:25:54;;;;;;;8.38;2.40;;;5.80;76.10;;;;;;5009035;28;20099;-72
2022/02/22 05:28:25;;;;;;;7.53;2.53;;;5.80;76.80;;;;;;5008126;28;20025;-73
2022/02/22 05:30:53;;;;;;;8.77;2.92;;;5.80;76.20;;;;;;5009116;28;20029;-72
2022/02/22 05:33:20;;;;;;;7.80;2.63;;;5.80;76.20;;;;;;5007916;28;20032;-72
2022/02/22 05:35:48;;;;;;;8.85;2.95;;;5.90;75.70;;;;;;5008443;28;20374;-72
2022/02/22 05:38:14;;;;;;;9.30;3.85;;;6.00;75.90;;;;;;5008715;28;20037;-72
2022/02/22 05:40:41;;;;;;;11.98;3.80;;;5.90;76.30;;;;;;5010240;28;20030;-72
2022/02/22 05:43:07;;;;;;;8.55;2.60;;;5.90;76.30;;;;;;4994291;28;20459;-73
2022/02/22 05:45:34;;;;;;;7.93;3.33;;;5.80;76.70;;;;;;5011027;28;20030;-72
2022/02/22 05:48:00;;;;;;;8.52;4.40;;;5.80;76.70;;;;;;5012151;28;20057;-73
2022/02/22 05:50:26;;;;;;;11.45;3.08;;;5.80;76.80;;;;;;5011109;28;20029;-73
2022/02/22 05:52:53;;;;;;;6.47;2.85;;;5.80;76.40;;;;;;4994127;28;20038;-73
2022/02/22 05:55:20;;;;;;;12.10;2.88;;;5.70;76.10;;;;;;5010852;28;20038;-77
2022/02/22 05:57:49;;;;;;;10.30;2.67;;;5.70;76.20;;;;;;5011864;28;20036;-72
2022/02/22 06:00:16;;;;;;;12.80;3.03;;;5.60;76.30;;;;;;5012728;28;20042;-72
2022/02/22 06:02:42;;;;;;;7.47;2.90;;;5.50;76.70;;;;;;5026110;28;20037;-73
2022/02/22 06:05:09;;;;;;;5.28;2.53;;;5.40;77.20;;;;;;4995091;28;20045;-72
2022/02/22 06:07:36;;;;;;;7.93;2.47;;;5.30;77.30;;;;;;5011327;28;20030;-73
2022/02/22 06:10:03;;;;;;;10.77;2.80;;;5.20;77.40;;;;;;5010764;28;20038;-73
2022/02/22 06:12:30;;;;;;;7.93;2.80;;;5.20;77.50;;;;;;5010285;28;20054;-72
2022/02/22 06:14:56;;;;;;;13.00;2.88;;;5.10;78.00;;;;;;5067982;28;20043;-73
2022/02/22 06:17:23;;;;;;;6.03;2.83;;;5.00;78.40;;;;;;5114207;28;20032;-73
2022/02/22 06:19:49;;;;;;;10.20;4.38;;;5.10;78.90;;;;;;5096840;28;20063;-72
2022/02/22 06:22:16;;;;;;;9.73;3.53;;;4.90;79.30;;;;;;5114182;28;20047;-72
2022/02/22 06:24:42;;;;;;;6.18;3.05;;;4.80;80.60;;;;;;5114191;28;20055;-73
2022/02/22 06:27:08;;;;;;;4.60;2.30;;;4.80;80.80;;;;;;5114701;28;20034;-72
2022/02/22 06:29:35;;;;;;;8.25;3.05;;;4.90;80.40;;;;;;5113738;28;20353;-73
2022/02/22 06:32:01;;;;;;;10.20;3.15;;;5.00;80.10;;;;;;5114234;28;20031;-72
2022/02/22 06:34:28;;;;;;;6.00;2.47;;;5.10;79.80;;;;;;5113688;28;20027;-73
2022/02/22 06:36:55;;;;;;;7.25;3.20;;;5.10;79.50;;;;;;5112401;28;20028;-73
2022/02/22 06:39:21;;;;;;;7.18;2.75;;;5.20;78.70;;;;;;5010343;28;20063;-72
2022/02/22 06:41:50;;;;;;;5.82;2.42;;;5.20;78.90;;;;;;5010482;28;20026;-72
2022/02/22 06:44:16;;;;;;;6.90;2.78;;;5.20;78.50;;;;;;4973800;28;20050;-72
2022/02/22 06:46:43;;;;;;;5.53;2.80;;;5.10;79.00;;;;;;4990686;28;20042;-73
2022/02/22 06:49:09;;;;;;;6.90;2.08;;;5.10;78.90;;;;;;4991147;28;20034;-72
2022/02/22 06:51:35;;;;;;;8.93;2.83;;;5.20;78.70;;;;;;4973094;28;20045;-72
2022/02/22 06:54:01;;;;;;;5.85;2.35;;;5.30;78.80;;;;;;4991278;28;20038;-72
2022/02/22 06:56:27;;;;;;;13.95;3.25;;;5.30;78.10;;;;;;4993011;28;20022;-73
2022/02/22 06:58:53;;;;;;;7.47;3.38;;;5.40;78.40;;;;;;5010560;28;20030;-72
2022/02/22 07:01:20;;;;;;;7.72;3.05;;;5.30;79.10;;;;;;5043770;28;20030;-72
2022/02/22 07:03:46;;;;;;;8.95;2.90;;;5.30;79.10;;;;;;5028770;28;20037;-72
2022/02/22 07:06:13;;;;;;;5.03;2.78;;;5.40;79.00;;;;;;4992851;28;20038;-74
2022/02/22 07:08:39;;;;;;;11.27;2.92;;;5.40;79.10;;;;;;5010089;28;20430;-73
2022/02/22 07:11:05;;;;;;;6.50;2.70;;;5.50;80.10;;;;;;5010163;28;20045;-72
2022/02/22 07:13:31;;;;;;;6.00;2.65;;;5.50;80.40;;;;;;4992163;28;20048;-72
2022/02/22 07:15:58;;;;;;;13.27;3.00;;;5.50;80.30;;;;;;5010096;28;20041;-72
2022/02/22 07:18:24;;;;;;;7.05;2.08;;;5.50;81.50;;;;;;5010338;28;20034;-74
2022/02/22 07:20:51;;;;;;;9.20;2.33;;;5.60;81.00;;;;;;5010605;28;20030;-72
2022/02/22 07:23:17;;;;;;;6.70;2.17;;;5.70;81.40;;;;;;5010073;28;20038;-72
2022/02/22 07:25:43;;;;;;;5.78;2.60;;;5.80;81.30;;;;;;4992135;28;20467;-72
2022/02/22 07:28:09;;;;;;;7.13;2.65;;;6.00;81.20;;;;;;5011229;28;20398;-72
2022/02/22 07:30:35;;;;;;;5.43;2.50;;;6.00;80.90;;;;;;5011223;28;20053;-72
2022/02/22 07:33:02;;;;;;;12.27;3.65;;;6.20;81.10;;;;;;5112845;28;20388;-72
2022/02/22 07:35:30;;;;;;;7.88;4.82;;;6.20;80.40;;;;;;5112386;28;20380;-72
2022/02/22 07:37:57;;;;;;;9.63;5.45;;;6.40;80.60;;;;;;5112818;28;20035;-75
2022/02/22 07:40:24;;;;;;;11.13;5.30;;;6.50;79.30;;;;;;5112729;28;20035;-72
2022/02/22 07:42:50;;;;;;;10.50;3.80;;;6.60;78.90;;;;;;5112995;28;20047;-72
2022/02/22 07:45:17;;;;;;;10.50;5.68;;;6.60;78.30;;;;;;5079481;28;20423;-72
2022/02/22 07:47:44;;;;;;;4.78;3.05;;;6.70;78.60;;;;;;5008765;28;20478;-73
2022/02/22 07:50:10;;;;;;;5.88;2.88;;;6.90;78.70;;;;;;5009472;28;20026;-73
2022/02/22 07:52:37;;;;;;;7.95;2.92;;;7.00;77.90;;;;;;5009016;28;20034;-73
2022/02/22 07:55:05;;;;;;;8.48;3.35;;;7.00;77.40;;;;;;5009874;28;20450;-73
2022/02/22 07:57:31;;;;;;;9.90;3.72;;;7.00;78.20;;;;;;5008969;28;20034;-73
2022/02/22 07:59:58;;;;;;;5.10;3.05;;;7.20;77.20;;;;;;5009373;28;20025;-72
2022/02/22 08:02:24;;;;;;;6.80;3.08;;;7.10;77.50;;;;;;5006223;28;20033;-73
2022/02/22 08:04:51;;;;;;;9.07;2.45;;;7.10;76.50;;;;;;5011281;28;20042;-72
2022/02/22 08:07:20;;;;;;;7.05;3.08;;;7.00;77.00;;;;;;5029018;28;20022;-72
2022/02/22 08:09:47;;;;;;;7.32;3.40;;;6.90;77.70;;;;;;5010971;28;20044;-72
2022/02/22 08:12:14;;;;;;;6.03;3.33;;;7.00;77.30;;;;;;5011266;28;20393;-72
2022/02/22 08:14:42;;;;;;;12.07;3.00;;;6.70;77.40;;;;;;5028092;28;20049;-72
2022/02/22 08:17:08;;;;;;;5.30;3.13;;;6.40;78.90;;;;;;5026367;28;20046;-72
2022/02/22 08:19:34;;;;;;;6.72;3.53;;;6.40;80.00;;;;;;4990681;28;20022;-73
2022/02/22 08:22:00;;;;;;;9.00;3.15;;;6.60;79.40;;;;;;5008770;28;20036;-72
2022/02/22 08:24:27;;;;;;;12.52;3.08;;;7.30;79.80;;;;;;5008527;28;20037;-77
2022/02/22 08:26:55;;;;;;;6.70;2.55;;;8.10;75.70;;;;;;5008432;28;20454;-72
2022/02/22 08:29:22;;;;;;;5.80;2.45;;;8.60;74.80;;;;;;5006103;28;20026;-73
2022/02/22 08:31:49;;;;;;;6.60;2.88;;;8.40;73.50;;;;;;5011271;28;20030;-73
2022/02/22 08:34:15;;;;;;;11.38;3.30;;;8.50;73.30;;;;;;5008585;28;20034;-72
2022/02/22 08:36:41;;;;;;;5.80;2.60;;;8.60;72.90;;;;;;5007946;28;20037;-72
2022/02/22 08:39:08;;;;;;;4.07;2.28;;;8.80;73.20;;;;;;4990803;28;20025;-73
2022/02/22 08:41:34;;;;;;;7.65;2.80;;;9.20;71.80;;;;;;5007834;28;20033;-73
2022/02/22 08:44:04;;;;;;;5.00;2.85;;;9.50;71.20;;;;;;5008706;28;20033;-72
2022/02/22 08:46:31;;;;;;;12.20;3.23;;;9.60;70.00;;;;;;5006554;28;20046;-73
2022/02/22 08:48:57;;;;;;;4.10;2.53;;;8.70;71.80;;;;;;5007129;28;20052;-72
2022/02/22 08:51:24;;;;;;;5.38;2.40;;;8.40;73.70;;;;;;5007839;28;20459;-73
2022/02/22 08:53:51;;;;;;;6.57;2.45;;;8.20;74.00;;;;;;5008167;28;20033;-72
2022/02/22 08:56:17;;;;;;;9.75;2.17;;;8.20;74.60;;;;;;5005723;28;20030;-73
2022/02/22 08:58:43;;;;;;;10.98;2.58;;;8.20;74.70;;;;;;5007530;28;20477;-72
2022/02/22 09:01:09;;;;;;;5.28;2.45;;;8.20;74.80;;;;;;5021935;28;20043;-76
2022/02/22 09:03:35;;;;;;;8.60;2.80;;;8.20;74.60;;;;;;5007547;28;20037;-73
2022/02/22 09:06:02;;;;;;;5.65;2.58;;;8.20;74.80;;;;;;4989370;28;20038;-72
2022/02/22 09:08:29;;;;;;;6.32;2.78;;;7.90;74.40;;;;;;5009809;28;20034;-77
2022/02/22 09:10:55;;;;;;;9.23;3.00;;;7.70;75.30;;;;;;4998907;28;20034;-73
2022/02/22 09:13:21;;;;;;;6.80;2.65;;;7.90;75.60;;;;;;5002681;28;20037;-72
2022/02/22 09:15:49;;;;;;;14.15;2.90;;;8.10;75.20;;;;;;5007166;28;20087;-72
2022/02/22 09:18:18;;;;;;;4.50;2.83;;;8.20;74.90;;;;;;5005041;28;20034;-72
2022/02/22 09:20:44;;;;;;;7.50;3.25;;;8.10;75.30;;;;;;4993779;28;20053;-73
2022/02/22 09:23:11;;;;;;;5.07;1.65;;;8.10;74.70;;;;;;4992109;28;20053;-72
2022/02/22 09:25:37;;;;;;;3.47;1.65;;;8.10;75.40;;;;;;4991687;28;20038;-73
2022/02/22 09:28:07;;;;;;;12.40;2.38;;;8.10;74.90;;;;;;5009298;28;20037;-72
2022/02/22 09:30:36;;;;;;;5.25;2.75;;;8.30;75.20;;;;;;5012190;28;20034;-73
2022/02/22 09:33:05;;;;;;;4.18;2.35;;;8.30;74.90;;;;;;4987643;28;20045;-74
2022/02/22 09:35:32;;;;;;;5.28;2.05;;;8.30;74.00;;;;;;5006896;28;20045;-73
2022/02/22 09:37:59;;;;;;;12.02;2.30;;;8.50;72.90;;;;;;5011031;28;20387;-76
2022/02/22 09:40:27;;;;;;;7.15;2.45;;;8.50;73.90;;;;;;4989974;28;20467;-75
2022/02/22 09:42:53;;;;;;;3.90;2.17;;;8.60;73.10;;;;;;4993008;28;20047;-75
2022/02/22 09:45:22;;;;;;;5.88;2.45;;;8.80;74.10;;;;;;5009106;28;20044;-76
2022/02/22 09:47:48;;;;;;;4.70;1.65;;;8.70;72.80;;;;;;5010474;28;20037;-76
2022/02/22 09:50:16;;;;;;;3.45;1.88;;;8.80;73.80;;;;;;5012033;28;20504;-76
2022/02/22 09:52:42;;;;;;;8.73;2.00;;;8.90;72.60;;;;;;4992209;28;20049;-76
2022/02/22 09:55:09;;;;;;;7.47;2.45;;;8.90;72.30;;;;;;5011675;28;20037;-75
2022/02/22 09:57:36;;;;;;;10.25;4.72;;;8.90;71.30;;;;;;5010303;28;20041;-76
2022/02/22 10:00:31;;;;;;;19.20;7.00;;;8.90;71.80;;;;;;5011418;28;20034;-75
2022/02/22 10:02:58;;;;;;;7.15;2.08;;;8.80;71.80;;;;;;5025365;28;20034;-76
2022/02/22 10:05:26;;;;;;;2.45;1.70;;;8.80;71.80;;;;;;5011672;28;20387;-76
2022/02/22 10:07:57;;;;;;;5.60;1.80;;;8.90;71.50;;;;;;5008618;28;20041;-75
2022/02/22 10:10:41;;;;;;;2.42;1.38;;;8.80;71.40;;;;;;4992024;28;20416;-76
2022/02/22 10:13:09;;;;;;;2.75;1.83;;;9.00;70.50;;;;;;5009769;28;20045;-74
2022/02/22 10:15:41;;;;;;;3.60;1.77;;;9.20;70.50;;;;;;5004699;28;20054;-75
2022/02/22 10:18:08;;;;;;;9.75;1.75;;;9.20;69.10;;;;;;5007594;28;20091;-75
2022/02/22 10:20:36;;;;;;;3.17;1.48;;;9.10;68.50;;;;;;5010032;28;20022;-74
2022/02/22 10:23:03;;;;;;;4.10;1.30;;;8.90;68.70;;;;;;5010401;28;20034;-75
2022/02/22 10:25:30;;;;;;;3.53;1.75;;;8.80;69.40;;;;;;5010498;28;20396;-74
2022/02/22 10:27:58;;;;;;;2.45;1.67;;;9.00;70.10;;;;;;5010357;28;20471;-75
2022/02/22 10:30:43;;;;;;;4.60;1.85;;;9.30;69.30;;;;;;5010896;28;20419;-74
2022/02/22 10:33:24;;;;;;;8.48;1.70;;;9.40;68.50;;;;;;4993374;28;20049;-74
2022/02/22 10:35:58;;;;;;;10.10;2.05;;;9.20;69.60;;;;;;5010112;28;20034;-75
2022/02/22 10:38:31;;;;;;;8.18;1.83;;;9.20;69.60;;;;;;5010917;28;20489;-74
2022/02/22 10:41:03;;;;;;;6.25;1.63;;;9.10;70.00;;;;;;5009202;28;20042;-74
2022/02/22 10:43:37;;;;;;;11.13;2.83;;;9.40;70.60;;;;;;5003785;28;20489;-75
2022/02/22 10:46:09;;;;;;;6.43;2.17;;;9.40;69.80;;;;;;5001322;28;20026;-75
2022/02/22 10:48:43;;;;;;;6.68;1.95;;;9.40;70.40;;;;;;4973655;28;20041;-75
2022/02/22 10:51:17;;;;;;;8.25;2.28;;;9.50;70.30;;;;;;5001771;28;20048;-75
2022/02/22 10:53:48;;;;;;;8.20;2.30;;;9.50;70.10;;;;;;4990041;28;20034;-74
2022/02/22 10:56:17;;;;;;;5.68;2.03;;;9.50;71.50;;;;;;4990877;28;20038;-74
2022/02/22 10:58:44;;;;;;;4.93;2.58;;;9.60;71.40;;;;;;4990491;28;20467;-75
2022/02/22 11:01:13;;;;;;;5.00;2.40;;;9.80;70.80;;;;;;5026945;28;20400;-74
2022/02/22 11:03:44;;;;;;;6.57;2.17;;;9.80;69.50;;;;;;5002687;28;20057;-75
2022/02/22 11:06:11;;;;;;;7.55;2.75;;;9.90;70.20;;;;;;4999649;28;20038;-74
2022/02/22 11:08:43;;;;;;;4.65;2.85;;;9.90;70.00;;;;;;5009607;28;20037;-74
2022/02/22 11:11:15;;;;;;;5.85;2.15;;;10.00;69.60;;;;;;4993330;28;20038;-75
2022/02/22 11:13:41;;;;;;;5.57;2.72;;;9.80;69.20;;;;;;4998861;28;20486;-74
2022/02/22 11:16:19;;;;;;;4.35;2.28;;;9.70;70.30;;;;;;4992293;28;20050;-74
2022/02/22 11:18:51;;;;;;;6.20;2.53;;;9.70;70.10;;;;;;4958213;28;20053;-74
2022/02/22 11:21:20;;;;;;;8.70;2.65;;;9.70;70.30;;;;;;4990919;28;20046;-73
2022/02/22 11:23:46;;;;;;;6.53;2.90;;;9.70;70.90;;;;;;4989466;28;20049;-74
2022/02/22 11:26:18;;;;;;;4.05;2.28;;;9.70;70.60;;;;;;4990557;28;20482;-74
2022/02/22 11:28:49;;;;;;;5.97;2.28;;;9.60;70.70;;;;;;4989609;28;20041;-74
2022/02/22 11:31:19;;;;;;;4.85;2.20;;;9.50;71.40;;;;;;5026638;28;20027;-74
2022/02/22 11:33:48;;;;;;;9.70;3.40;;;9.30;72.20;;;;;;5112510;28;20042;-75
2022/02/22 11:36:32;;;;;;;8.70;3.42;;;9.30;72.60;;;;;;5113328;28;20372;-74
2022/02/22 11:38:59;;;;;;;6.55;2.70;;;9.20;73.40;;;;;;5112005;28;20038;-74
2022/02/22 11:41:28;;;;;;;8.38;2.83;;;9.20;73.00;;;;;;5113205;28;20024;-74
2022/02/22 11:43:54;;;;;;;8.90;3.47;;;9.20;73.70;;;;;;5094153;28;20456;-73
2022/02/22 11:46:34;;;;;;;10.55;3.15;;;9.20;73.70;;;;;;5113010;28;20040;-74
2022/02/22 11:49:05;;;;;;;9.98;3.80;;;9.30;73.70;;;;;;5112483;28;20046;-74
2022/02/22 11:51:45;;;;;;;8.77;3.28;;;9.30;74.20;;;;;;5112803;28;20034;-74
2022/02/22 11:54:23;;;;;;;6.55;3.15;;;9.30;74.30;;;;;;5023676;28;20038;-75
2022/02/22 11:57:05;;;;;;;6.82;3.15;;;9.30;74.40;;;;;;4989803;28;20471;-74
2022/02/22 11:59:44;;;;;;;11.27;3.15;;;9.40;74.00;;;;;;4990114;28;20027;-74
2022/02/22 12:02:10;;;;;;;10.82;3.78;;;9.40;73.80;;;;;;5053975;28;20043;-73
2022/02/22 12:04:43;;;;;;;7.38;2.38;;;9.30;74.20;;;;;;5112608;28;20027;-73
2022/02/22 12:07:09;;;;;;;7.10;3.47;;;9.40;74.60;;;;;;5112661;28;20027;-75
2022/02/22 12:09:37;;;;;;;9.82;3.83;;;9.30;74.40;;;;;;5107648;28;20472;-76
2022/02/22 12:12:06;;;;;;;6.47;3.00;;;9.30;75.00;;;;;;4991502;28;20042;-76
2022/02/22 12:14:33;;;;;;;5.57;2.75;;;9.30;74.40;;;;;;5009420;28;20402;-76
2022/02/22 12:16:59;;;;;;;9.95;4.25;;;9.30;74.80;;;;;;4991599;28;20038;-76
2022/02/22 12:19:26;;;;;;;5.70;3.20;;;9.30;74.80;;;;;;4991772;28;20053;-76
2022/02/22 12:21:54;;;;;;;13.15;4.07;;;9.30;75.20;;;;;;4976430;28;20052;-76
2022/02/22 12:24:23;;;;;;;12.93;3.58;;;9.30;75.00;;;;;;4991838;28;20371;-74
2022/02/22 12:26:50;;;;;;;17.13;7.57;;;9.40;74.30;;;;;;5008891;28;20058;-75
2022/02/22 12:29:17;;;;;;;11.20;5.47;;;9.40;74.40;;;;;;5009569;28;20030;-75
2022/02/22 12:31:51;;;;;;;8.93;4.78;;;9.40;74.80;;;;;;5058790;28;20024;-75
2022/02/22 12:34:21;;;;;;;9.57;4.50;;;9.30;75.30;;;;;;5078066;28;20034;-79
2022/02/22 12:36:54;;;;;;;12.63;4.68;;;9.40;74.60;;;;;;5009075;28;20033;-81
2022/02/22 12:39:23;;;;;;;14.95;5.05;;;9.50;74.90;;;;;;4996148;28;20466;-79
2022/02/22 12:41:55;;;;;;;18.77;7.88;;;9.60;73.20;;;;;;4975831;28;20053;-82
2022/02/22 12:44:25;;;;;;;18.08;12.68;;;9.70;73.60;;;;;;4972127;28;20057;-80
2022/02/22 12:46:54;;;;;;;42.78;25.08;;;9.60;73.60;;;;;;4956320;28;20053;-80
2022/02/22 12:49:22;;;;;;;18.33;12.07;;;9.70;73.10;;;;;;4991960;28;20035;-83
2022/02/22 12:51:49;;;;;;;23.42;10.25;;;9.70;73.30;;;;;;4976039;28;20383;-82
2022/02/22 12:54:20;;;;;;;11.45;7.40;;;9.60;73.10;;;;;;4975849;28;20487;-81
2022/02/22 12:56:56;;;;;;;14.82;9.30;;;9.50;73.60;;;;;;5010606;28;20037;-82